sensor_id;sensor_type;location;lat;lon;timestamp;P1;durP1;ratioP1;P2;durP2;ratioP2
15363;SDS011;7781;49.690;6.472;2024-01-15T00:00:59;17.27;;;7.50;;
15363;SDS011;7781;49.690;6.472;2024-01-15T00:03:28;19.07;;;8.23;;
15363;SDS011;7781;49.690;6.472;2024-01-15T00:05:57;17.53;;;6.90;;
15363;SDS011;7781;49.690;6.472;2024-01-15T00:08:27;24.40;;;8.80;;
15363;SDS011;7781;49.690;6.472;2024-01-15T00:10:56;18.43;;;7.30;;
15363;SDS011;7781;49.690;6.472;2024-01-15T00:13:24;24.90;;;8.40;;
15363;SDS011;7781;49.690;6.472;2024-01-15T00:15:53;27.73;;;9.20;;
15363;SDS011;7781;49.690;6.472;2024-01-15T00:18:21;15.20;;;6.63;;
15363;SDS011;7781;49.690;6.472;2024-01-15T00:20:51;22.57;;;7.63;;
15363;SDS011;7781;49.690;6.472;2024-01-15T00:23:21;22.70;;;8.70;;
15363;SDS011;7781;49.690;6.472;2024-01-15T00:25:53;20.20;;;7.27;;
15363;SDS011;7781;49.690;6.472;2024-01-15T00:28:22;35.63;;;8.00;;
15363;SDS011;7781;49.690;6.472;2024-01-15T00:30:50;23.47;;;9.17;;
15363;SDS011;7781;49.690;6.472;2024-01-15T00:33:19;17.03;;;6.03;;
15363;SDS011;7781;49.690;6.472;2024-01-15T00:35:48;25.50;;;8.73;;
15363;SDS011;7781;49.690;6.472;2024-01-15T00:38:16;23.53;;;8.77;;
15363;SDS011;7781;49.690;6.472;2024-01-15T00:40:45;24.33;;;8.80;;
15363;SDS011;7781;49.690;6.472;2024-01-15T00:43:15;32.23;;;7.40;;
15363;SDS011;7781;49.690;6.472;2024-01-15T00:45:46;16.70;;;5.87;;
15363;SDS011;7781;49.690;6.472;2024-01-15T00:48:14;24.50;;;7.67;;
15363;SDS011;7781;49.690;6.472;2024-01-15T00:50:43;20.90;;;8.63;;
15363;SDS011;7781;49.690;6.472;2024-01-15T00:53:12;36.40;;;7.50;;
15363;SDS011;7781;49.690;6.472;2024-01-15T00:55:41;37.07;;;10.00;;
15363;SDS011;7781;49.690;6.472;2024-01-15T00:58:09;29.03;;;10.10;;
15363;SDS011;7781;49.690;6.472;2024-01-15T01:00:40;24.43;;;8.40;;
15363;SDS011;7781;49.690;6.472;2024-01-15T01:03:08;26.60;;;8.53;;
15363;SDS011;7781;49.690;6.472;2024-01-15T01:05:37;29.67;;;9.70;;
15363;SDS011;7781;49.690;6.472;2024-01-15T01:08:06;22.43;;;6.93;;
15363;SDS011;7781;49.690;6.472;2024-01-15T01:10:35;15.70;;;5.50;;
15363;SDS011;7781;49.690;6.472;2024-01-15T01:13:04;33.97;;;10.87;;
15363;SDS011;7781;49.690;6.472;2024-01-15T01:15:33;28.50;;;10.57;;
15363;SDS011;7781;49.690;6.472;2024-01-15T01:18:03;33.43;;;10.70;;
15363;SDS011;7781;49.690;6.472;2024-01-15T01:20:33;29.07;;;9.83;;
15363;SDS011;7781;49.690;6.472;2024-01-15T01:23:02;26.70;;;6.93;;
15363;SDS011;7781;49.690;6.472;2024-01-15T01:25:31;22.60;;;5.83;;
15363;SDS011;7781;49.690;6.472;2024-01-15T01:27:59;28.37;;;8.97;;
15363;SDS011;7781;49.690;6.472;2024-01-15T01:30:28;23.87;;;8.47;;
15363;SDS011;7781;49.690;6.472;2024-01-15T01:32:56;22.23;;;7.33;;
15363;SDS011;7781;49.690;6.472;2024-01-15T01:35:26;22.80;;;7.53;;
15363;SDS011;7781;49.690;6.472;2024-01-15T01:37:54;22.67;;;9.17;;
15363;SDS011;7781;49.690;6.472;2024-01-15T01:40:23;25.93;;;9.47;;
15363;SDS011;7781;49.690;6.472;2024-01-15T01:42:53;23.47;;;8.17;;
15363;SDS011;7781;49.690;6.472;2024-01-15T01:45:22;13.60;;;5.50;;
15363;SDS011;7781;49.690;6.472;2024-01-15T01:47:50;28.70;;;10.43;;
15363;SDS011;7781;49.690;6.472;2024-01-15T01:50:19;27.23;;;6.90;;
15363;SDS011;7781;49.690;6.472;2024-01-15T01:52:50;26.07;;;8.77;;
15363;SDS011;7781;49.690;6.472;2024-01-15T01:55:18;32.43;;;10.43;;
15363;SDS011;7781;49.690;6.472;2024-01-15T01:57:48;24.13;;;9.03;;
15363;SDS011;7781;49.690;6.472;2024-01-15T02:00:17;32.73;;;10.50;;
15363;SDS011;7781;49.690;6.472;2024-01-15T02:02:46;25.63;;;7.33;;
15363;SDS011;7781;49.690;6.472;2024-01-15T02:05:17;34.00;;;9.97;;
15363;SDS011;7781;49.690;6.472;2024-01-15T02:07:46;33.43;;;10.50;;
15363;SDS011;7781;49.690;6.472;2024-01-15T02:10:17;13.77;;;6.20;;
15363;SDS011;7781;49.690;6.472;2024-01-15T02:12:46;20.60;;;7.70;;
15363;SDS011;7781;49.690;6.472;2024-01-15T02:15:16;19.27;;;7.93;;
15363;SDS011;7781;49.690;6.472;2024-01-15T02:17:59;34.77;;;12.40;;
15363;SDS011;7781;49.690;6.472;2024-01-15T02:20:28;32.87;;;11.17;;
15363;SDS011;7781;49.690;6.472;2024-01-15T02:23:06;18.20;;;6.77;;
15363;SDS011;7781;49.690;6.472;2024-01-15T02:25:38;22.80;;;8.20;;
15363;SDS011;7781;49.690;6.472;2024-01-15T02:28:08;16.53;;;7.07;;
15363;SDS011;7781;49.690;6.472;2024-01-15T02:30:39;20.07;;;6.00;;
15363;SDS011;7781;49.690;6.472;2024-01-15T02:33:09;29.80;;;9.57;;
15363;SDS011;7781;49.690;6.472;2024-01-15T02:35:40;28.03;;;9.53;;
15363;SDS011;7781;49.690;6.472;2024-01-15T02:38:10;26.77;;;8.47;;
15363;SDS011;7781;49.690;6.472;2024-01-15T02:40:38;28.30;;;10.83;;
15363;SDS011;7781;49.690;6.472;2024-01-15T02:43:07;16.77;;;7.63;;
15363;SDS011;7781;49.690;6.472;2024-01-15T02:45:36;26.50;;;8.93;;
15363;SDS011;7781;49.690;6.472;2024-01-15T02:48:05;34.47;;;10.77;;
15363;SDS011;7781;49.690;6.472;2024-01-15T02:50:35;17.60;;;5.27;;
15363;SDS011;7781;49.690;6.472;2024-01-15T02:53:05;37.23;;;8.80;;
15363;SDS011;7781;49.690;6.472;2024-01-15T02:55:35;25.30;;;8.30;;
15363;SDS011;7781;49.690;6.472;2024-01-15T02:58:04;14.17;;;4.27;;
15363;SDS011;7781;49.690;6.472;2024-01-15T03:00:32;32.03;;;9.17;;
15363;SDS011;7781;49.690;6.472;2024-01-15T03:03:01;27.40;;;11.00;;
15363;SDS011;7781;49.690;6.472;2024-01-15T03:05:30;18.90;;;6.50;;
15363;SDS011;7781;49.690;6.472;2024-01-15T03:07:58;24.83;;;8.83;;
15363;SDS011;7781;49.690;6.472;2024-01-15T03:10:27;36.67;;;11.47;;
15363;SDS011;7781;49.690;6.472;2024-01-15T03:12:58;23.93;;;8.80;;
15363;SDS011;7781;49.690;6.472;2024-01-15T03:15:27;29.23;;;9.57;;
15363;SDS011;7781;49.690;6.472;2024-01-15T03:17:56;23.80;;;10.00;;
15363;SDS011;7781;49.690;6.472;2024-01-15T03:20:25;24.67;;;9.37;;
15363;SDS011;7781;49.690;6.472;2024-01-15T03:22:53;28.37;;;9.10;;
15363;SDS011;7781;49.690;6.472;2024-01-15T03:25:22;30.47;;;10.23;;
15363;SDS011;7781;49.690;6.472;2024-01-15T03:27:51;36.60;;;11.47;;
15363;SDS011;7781;49.690;6.472;2024-01-15T03:30:21;26.40;;;10.27;;
15363;SDS011;7781;49.690;6.472;2024-01-15T03:32:50;28.97;;;7.67;;
15363;SDS011;7781;49.690;6.472;2024-01-15T03:35:18;19.67;;;8.10;;
15363;SDS011;7781;49.690;6.472;2024-01-15T03:37:47;14.40;;;6.00;;
15363;SDS011;7781;49.690;6.472;2024-01-15T03:40:16;21.03;;;7.90;;
15363;SDS011;7781;49.690;6.472;2024-01-15T03:42:49;29.30;;;10.57;;
15363;SDS011;7781;49.690;6.472;2024-01-15T03:45:20;14.77;;;5.77;;
15363;SDS011;7781;49.690;6.472;2024-01-15T03:47:49;22.27;;;8.17;;
15363;SDS011;7781;49.690;6.472;2024-01-15T03:50:18;32.63;;;12.00;;
15363;SDS011;7781;49.690;6.472;2024-01-15T03:52:47;24.93;;;8.70;;
15363;SDS011;7781;49.690;6.472;2024-01-15T03:55:15;26.77;;;9.33;;
15363;SDS011;7781;49.690;6.472;2024-01-15T03:57:44;23.73;;;8.20;;
15363;SDS011;7781;49.690;6.472;2024-01-15T04:00:14;32.93;;;10.30;;
15363;SDS011;7781;49.690;6.472;2024-01-15T04:02:46;31.10;;;11.17;;
15363;SDS011;7781;49.690;6.472;2024-01-15T04:05:14;34.73;;;11.27;;
15363;SDS011;7781;49.690;6.472;2024-01-15T04:07:43;31.30;;;9.93;;
15363;SDS011;7781;49.690;6.472;2024-01-15T04:10:13;23.93;;;8.53;;
15363;SDS011;7781;49.690;6.472;2024-01-15T04:12:42;19.87;;;8.13;;
15363;SDS011;7781;49.690;6.472;2024-01-15T04:15:13;42.97;;;10.47;;
15363;SDS011;7781;49.690;6.472;2024-01-15T04:17:41;22.20;;;8.80;;
15363;SDS011;7781;49.690;6.472;2024-01-15T04:20:12;30.97;;;10.47;;
15363;SDS011;7781;49.690;6.472;2024-01-15T04:22:41;29.27;;;10.60;;
15363;SDS011;7781;49.690;6.472;2024-01-15T04:25:09;31.10;;;9.63;;
15363;SDS011;7781;49.690;6.472;2024-01-15T04:27:37;27.37;;;9.60;;
15363;SDS011;7781;49.690;6.472;2024-01-15T04:30:06;25.27;;;9.93;;
15363;SDS011;7781;49.690;6.472;2024-01-15T04:32:36;31.77;;;9.73;;
15363;SDS011;7781;49.690;6.472;2024-01-15T04:35:06;22.60;;;10.10;;
15363;SDS011;7781;49.690;6.472;2024-01-15T04:37:36;15.27;;;6.43;;
15363;SDS011;7781;49.690;6.472;2024-01-15T04:40:06;22.53;;;7.37;;
15363;SDS011;7781;49.690;6.472;2024-01-15T04:42:36;17.00;;;7.67;;
15363;SDS011;7781;49.690;6.472;2024-01-15T04:45:05;24.70;;;10.00;;
15363;SDS011;7781;49.690;6.472;2024-01-15T04:47:34;11.70;;;5.87;;
15363;SDS011;7781;49.690;6.472;2024-01-15T04:50:04;29.93;;;10.37;;
15363;SDS011;7781;49.690;6.472;2024-01-15T04:52:34;24.10;;;11.10;;
15363;SDS011;7781;49.690;6.472;2024-01-15T04:55:05;18.47;;;7.27;;
15363;SDS011;7781;49.690;6.472;2024-01-15T04:57:33;18.47;;;7.40;;
15363;SDS011;7781;49.690;6.472;2024-01-15T05:00:02;35.37;;;9.50;;
15363;SDS011;7781;49.690;6.472;2024-01-15T05:02:32;23.00;;;7.23;;
15363;SDS011;7781;49.690;6.472;2024-01-15T05:05:00;27.73;;;10.60;;
15363;SDS011;7781;49.690;6.472;2024-01-15T05:07:28;21.67;;;8.27;;
15363;SDS011;7781;49.690;6.472;2024-01-15T05:09:57;25.00;;;10.73;;
15363;SDS011;7781;49.690;6.472;2024-01-15T05:12:27;19.70;;;6.97;;
15363;SDS011;7781;49.690;6.472;2024-01-15T05:14:56;19.57;;;8.10;;
15363;SDS011;7781;49.690;6.472;2024-01-15T05:17:24;28.60;;;10.60;;
15363;SDS011;7781;49.690;6.472;2024-01-15T05:19:53;21.33;;;8.63;;
15363;SDS011;7781;49.690;6.472;2024-01-15T05:22:22;25.40;;;9.70;;
15363;SDS011;7781;49.690;6.472;2024-01-15T05:24:51;32.50;;;9.90;;
15363;SDS011;7781;49.690;6.472;2024-01-15T05:27:20;29.63;;;9.47;;
15363;SDS011;7781;49.690;6.472;2024-01-15T05:29:51;15.23;;;5.87;;
15363;SDS011;7781;49.690;6.472;2024-01-15T05:32:19;24.60;;;8.87;;
15363;SDS011;7781;49.690;6.472;2024-01-15T05:34:48;24.60;;;10.63;;
15363;SDS011;7781;49.690;6.472;2024-01-15T05:37:17;28.77;;;11.97;;
15363;SDS011;7781;49.690;6.472;2024-01-15T05:39:45;26.87;;;9.37;;
15363;SDS011;7781;49.690;6.472;2024-01-15T05:42:14;22.90;;;10.90;;
15363;SDS011;7781;49.690;6.472;2024-01-15T05:44:43;21.47;;;7.80;;
15363;SDS011;7781;49.690;6.472;2024-01-15T05:47:13;27.67;;;9.40;;
15363;SDS011;7781;49.690;6.472;2024-01-15T05:49:41;17.50;;;7.60;;
15363;SDS011;7781;49.690;6.472;2024-01-15T05:52:11;21.40;;;7.27;;
15363;SDS011;7781;49.690;6.472;2024-01-15T05:54:40;19.17;;;6.93;;
15363;SDS011;7781;49.690;6.472;2024-01-15T05:57:09;18.00;;;7.53;;
15363;SDS011;7781;49.690;6.472;2024-01-15T05:59:38;22.33;;;9.63;;
15363;SDS011;7781;49.690;6.472;2024-01-15T06:02:06;17.03;;;7.60;;
15363;SDS011;7781;49.690;6.472;2024-01-15T06:04:37;23.03;;;10.03;;
15363;SDS011;7781;49.690;6.472;2024-01-15T06:07:06;22.33;;;9.47;;
15363;SDS011;7781;49.690;6.472;2024-01-15T06:09:36;24.93;;;10.83;;
15363;SDS011;7781;49.690;6.472;2024-01-15T06:12:06;24.80;;;11.13;;
15363;SDS011;7781;49.690;6.472;2024-01-15T06:14:36;25.57;;;9.63;;
15363;SDS011;7781;49.690;6.472;2024-01-15T06:17:04;30.20;;;11.30;;
15363;SDS011;7781;49.690;6.472;2024-01-15T06:19:32;23.40;;;10.43;;
15363;SDS011;7781;49.690;6.472;2024-01-15T06:22:03;27.53;;;8.47;;
15363;SDS011;7781;49.690;6.472;2024-01-15T06:24:32;32.20;;;11.63;;
15363;SDS011;7781;49.690;6.472;2024-01-15T06:27:00;12.13;;;4.90;;
15363;SDS011;7781;49.690;6.472;2024-01-15T06:29:29;26.63;;;11.10;;
15363;SDS011;7781;49.690;6.472;2024-01-15T06:31:58;25.80;;;9.07;;
15363;SDS011;7781;49.690;6.472;2024-01-15T06:34:27;24.57;;;9.90;;
15363;SDS011;7781;49.690;6.472;2024-01-15T06:36:57;25.30;;;10.30;;
15363;SDS011;7781;49.690;6.472;2024-01-15T06:39:27;23.50;;;9.70;;
15363;SDS011;7781;49.690;6.472;2024-01-15T06:41:56;14.73;;;6.00;;
15363;SDS011;7781;49.690;6.472;2024-01-15T06:44:25;20.00;;;8.20;;
15363;SDS011;7781;49.690;6.472;2024-01-15T06:46:53;27.30;;;9.53;;
15363;SDS011;7781;49.690;6.472;2024-01-15T06:49:24;23.90;;;9.17;;
15363;SDS011;7781;49.690;6.472;2024-01-15T06:51:53;10.20;;;5.57;;
15363;SDS011;7781;49.690;6.472;2024-01-15T06:54:21;32.70;;;10.87;;
15363;SDS011;7781;49.690;6.472;2024-01-15T06:56:52;27.93;;;10.93;;
15363;SDS011;7781;49.690;6.472;2024-01-15T06:59:20;29.00;;;10.33;;
15363;SDS011;7781;49.690;6.472;2024-01-15T07:01:49;28.07;;;11.67;;
15363;SDS011;7781;49.690;6.472;2024-01-15T07:04:18;30.33;;;11.83;;
15363;SDS011;7781;49.690;6.472;2024-01-15T07:06:48;19.00;;;7.83;;
15363;SDS011;7781;49.690;6.472;2024-01-15T07:09:16;26.27;;;11.60;;
15363;SDS011;7781;49.690;6.472;2024-01-15T07:11:46;17.57;;;7.50;;
15363;SDS011;7781;49.690;6.472;2024-01-15T07:14:16;25.97;;;10.47;;
15363;SDS011;7781;49.690;6.472;2024-01-15T07:16:45;22.97;;;9.30;;
15363;SDS011;7781;49.690;6.472;2024-01-15T07:19:14;20.37;;;8.40;;
15363;SDS011;7781;49.690;6.472;2024-01-15T07:21:43;33.80;;;11.13;;
15363;SDS011;7781;49.690;6.472;2024-01-15T07:24:11;28.17;;;12.00;;
15363;SDS011;7781;49.690;6.472;2024-01-15T07:26:40;23.53;;;9.73;;
15363;SDS011;7781;49.690;6.472;2024-01-15T07:29:09;29.23;;;9.93;;
15363;SDS011;7781;49.690;6.472;2024-01-15T07:31:39;17.37;;;8.30;;
15363;SDS011;7781;49.690;6.472;2024-01-15T07:34:08;21.37;;;8.87;;
15363;SDS011;7781;49.690;6.472;2024-01-15T07:36:37;24.90;;;10.87;;
15363;SDS011;7781;49.690;6.472;2024-01-15T07:39:06;25.60;;;8.53;;
15363;SDS011;7781;49.690;6.472;2024-01-15T07:41:35;25.47;;;10.67;;
15363;SDS011;7781;49.690;6.472;2024-01-15T07:44:06;31.33;;;11.30;;
15363;SDS011;7781;49.690;6.472;2024-01-15T07:46:34;21.77;;;10.47;;
15363;SDS011;7781;49.690;6.472;2024-01-15T07:49:04;30.33;;;9.00;;
15363;SDS011;7781;49.690;6.472;2024-01-15T07:51:33;14.03;;;5.90;;
15363;SDS011;7781;49.690;6.472;2024-01-15T07:54:02;22.93;;;10.73;;
15363;SDS011;7781;49.690;6.472;2024-01-15T07:56:32;24.50;;;10.77;;
15363;SDS011;7781;49.690;6.472;2024-01-15T07:59:01;21.80;;;9.00;;
15363;SDS011;7781;49.690;6.472;2024-01-15T08:01:31;18.30;;;7.80;;
15363;SDS011;7781;49.690;6.472;2024-01-15T08:03:59;22.67;;;8.80;;
15363;SDS011;7781;49.690;6.472;2024-01-15T08:06:29;25.80;;;10.03;;
15363;SDS011;7781;49.690;6.472;2024-01-15T08:08:59;24.40;;;9.00;;
15363;SDS011;7781;49.690;6.472;2024-01-15T08:11:27;21.03;;;9.60;;
15363;SDS011;7781;49.690;6.472;2024-01-15T08:13:56;19.33;;;8.63;;
15363;SDS011;7781;49.690;6.472;2024-01-15T08:16:25;25.37;;;10.83;;
15363;SDS011;7781;49.690;6.472;2024-01-15T08:18:54;23.33;;;9.77;;
15363;SDS011;7781;49.690;6.472;2024-01-15T08:21:23;20.57;;;9.03;;
15363;SDS011;7781;49.690;6.472;2024-01-15T08:23:53;26.10;;;10.50;;
15363;SDS011;7781;49.690;6.472;2024-01-15T08:26:22;20.77;;;9.20;;
15363;SDS011;7781;49.690;6.472;2024-01-15T08:28:51;22.37;;;8.70;;
15363;SDS011;7781;49.690;6.472;2024-01-15T08:31:19;25.27;;;8.63;;
15363;SDS011;7781;49.690;6.472;2024-01-15T08:33:48;24.93;;;9.57;;
15363;SDS011;7781;49.690;6.472;2024-01-15T08:36:17;14.30;;;5.87;;
15363;SDS011;7781;49.690;6.472;2024-01-15T08:38:46;15.27;;;7.27;;
15363;SDS011;7781;49.690;6.472;2024-01-15T08:41:16;17.40;;;7.30;;
15363;SDS011;7781;49.690;6.472;2024-01-15T08:43:45;19.60;;;8.33;;
15363;SDS011;7781;49.690;6.472;2024-01-15T08:46:13;18.17;;;8.00;;
15363;SDS011;7781;49.690;6.472;2024-01-15T08:48:42;20.03;;;8.37;;
15363;SDS011;7781;49.690;6.472;2024-01-15T08:51:11;23.57;;;9.87;;
15363;SDS011;7781;49.690;6.472;2024-01-15T08:53:40;16.67;;;7.07;;
15363;SDS011;7781;49.690;6.472;2024-01-15T08:56:09;25.50;;;9.10;;
15363;SDS011;7781;49.690;6.472;2024-01-15T08:58:40;17.47;;;7.33;;
15363;SDS011;7781;49.690;6.472;2024-01-15T09:01:09;10.67;;;5.77;;
15363;SDS011;7781;49.690;6.472;2024-01-15T09:03:37;20.13;;;7.37;;
15363;SDS011;7781;49.690;6.472;2024-01-15T09:06:08;16.27;;;7.23;;
15363;SDS011;7781;49.690;6.472;2024-01-15T09:08:37;13.97;;;6.60;;
15363;SDS011;7781;49.690;6.472;2024-01-15T09:11:07;19.10;;;6.67;;
15363;SDS011;7781;49.690;6.472;2024-01-15T09:13:36;21.23;;;9.07;;
15363;SDS011;7781;49.690;6.472;2024-01-15T09:16:06;18.13;;;9.03;;
15363;SDS011;7781;49.690;6.472;2024-01-15T09:18:35;14.37;;;7.43;;
15363;SDS011;7781;49.690;6.472;2024-01-15T09:21:03;17.63;;;8.47;;
15363;SDS011;7781;49.690;6.472;2024-01-15T09:23:33;17.17;;;8.00;;
15363;SDS011;7781;49.690;6.472;2024-01-15T09:26:02;15.30;;;8.00;;
15363;SDS011;7781;49.690;6.472;2024-01-15T09:28:31;18.77;;;7.90;;
15363;SDS011;7781;49.690;6.472;2024-01-15T09:30:59;15.30;;;7.90;;
15363;SDS011;7781;49.690;6.472;2024-01-15T09:33:29;5.23;;;4.00;;
15363;SDS011;7781;49.690;6.472;2024-01-15T09:36:00;18.13;;;8.10;;
15363;SDS011;7781;49.690;6.472;2024-01-15T09:38:30;18.83;;;8.13;;
15363;SDS011;7781;49.690;6.472;2024-01-15T09:41:00;18.83;;;8.77;;
15363;SDS011;7781;49.690;6.472;2024-01-15T09:43:28;19.10;;;8.53;;
15363;SDS011;7781;49.690;6.472;2024-01-15T09:45:57;15.43;;;7.00;;
15363;SDS011;7781;49.690;6.472;2024-01-15T09:48:26;16.33;;;9.00;;
15363;SDS011;7781;49.690;6.472;2024-01-15T09:50:57;14.13;;;7.00;;
15363;SDS011;7781;49.690;6.472;2024-01-15T09:53:27;13.80;;;6.20;;
15363;SDS011;7781;49.690;6.472;2024-01-15T09:55:57;10.70;;;4.53;;
15363;SDS011;7781;49.690;6.472;2024-01-15T09:58:28;12.23;;;6.50;;
15363;SDS011;7781;49.690;6.472;2024-01-15T10:00:57;16.43;;;8.00;;
15363;SDS011;7781;49.690;6.472;2024-01-15T10:03:32;11.50;;;6.10;;
15363;SDS011;7781;49.690;6.472;2024-01-15T10:06:03;16.10;;;6.73;;
15363;SDS011;7781;49.690;6.472;2024-01-15T10:08:34;15.07;;;7.20;;
15363;SDS011;7781;49.690;6.472;2024-01-15T10:11:04;16.93;;;7.20;;
15363;SDS011;7781;49.690;6.472;2024-01-15T10:13:33;15.00;;;6.30;;
15363;SDS011;7781;49.690;6.472;2024-01-15T10:16:04;15.93;;;7.73;;
15363;SDS011;7781;49.690;6.472;2024-01-15T10:18:34;16.60;;;7.47;;
15363;SDS011;7781;49.690;6.472;2024-01-15T10:21:07;15.93;;;7.27;;
15363;SDS011;7781;49.690;6.472;2024-01-15T10:23:36;16.47;;;7.50;;
15363;SDS011;7781;49.690;6.472;2024-01-15T10:26:04;15.27;;;6.37;;
15363;SDS011;7781;49.690;6.472;2024-01-15T10:28:33;16.87;;;7.37;;
15363;SDS011;7781;49.690;6.472;2024-01-15T10:31:01;16.73;;;7.20;;
15363;SDS011;7781;49.690;6.472;2024-01-15T10:33:31;11.77;;;7.20;;
15363;SDS011;7781;49.690;6.472;2024-01-15T10:36:00;17.50;;;7.13;;
15363;SDS011;7781;49.690;6.472;2024-01-15T10:38:30;7.80;;;4.83;;
15363;SDS011;7781;49.690;6.472;2024-01-15T10:40:59;15.13;;;8.00;;
15363;SDS011;7781;49.690;6.472;2024-01-15T10:43:27;16.00;;;7.03;;
15363;SDS011;7781;49.690;6.472;2024-01-15T10:45:56;14.40;;;7.30;;
15363;SDS011;7781;49.690;6.472;2024-01-15T10:48:26;13.87;;;7.53;;
15363;SDS011;7781;49.690;6.472;2024-01-15T10:50:57;11.90;;;6.67;;
15363;SDS011;7781;49.690;6.472;2024-01-15T10:53:26;11.37;;;6.97;;
15363;SDS011;7781;49.690;6.472;2024-01-15T10:56:00;11.97;;;6.50;;
15363;SDS011;7781;49.690;6.472;2024-01-15T10:58:30;11.20;;;6.07;;
15363;SDS011;7781;49.690;6.472;2024-01-15T11:01:01;12.60;;;6.50;;
15363;SDS011;7781;49.690;6.472;2024-01-15T11:03:31;15.03;;;6.93;;
15363;SDS011;7781;49.690;6.472;2024-01-15T11:06:01;12.27;;;7.03;;
15363;SDS011;7781;49.690;6.472;2024-01-15T11:08:30;16.07;;;7.27;;
15363;SDS011;7781;49.690;6.472;2024-01-15T11:11:01;12.10;;;6.70;;
15363;SDS011;7781;49.690;6.472;2024-01-15T11:13:39;10.73;;;6.13;;
15363;SDS011;7781;49.690;6.472;2024-01-15T11:16:09;11.47;;;6.27;;
15363;SDS011;7781;49.690;6.472;2024-01-15T11:18:40;11.20;;;6.87;;
15363;SDS011;7781;49.690;6.472;2024-01-15T11:21:19;11.17;;;6.67;;
15363;SDS011;7781;49.690;6.472;2024-01-15T11:23:49;12.80;;;7.23;;
15363;SDS011;7781;49.690;6.472;2024-01-15T11:26:34;12.73;;;7.30;;
15363;SDS011;7781;49.690;6.472;2024-01-15T11:29:04;13.47;;;7.00;;
15363;SDS011;7781;49.690;6.472;2024-01-15T11:37:26;13.33;;;7.07;;
15363;SDS011;7781;49.690;6.472;2024-01-15T11:39:55;11.17;;;6.40;;
15363;SDS011;7781;49.690;6.472;2024-01-15T11:42:32;9.67;;;5.57;;
15363;SDS011;7781;49.690;6.472;2024-01-15T11:45:00;9.23;;;6.10;;
15363;SDS011;7781;49.690;6.472;2024-01-15T11:47:47;10.47;;;5.50;;
15363;SDS011;7781;49.690;6.472;2024-01-15T11:50:40;11.30;;;6.00;;
15363;SDS011;7781;49.690;6.472;2024-01-15T11:53:13;13.63;;;6.00;;
15363;SDS011;7781;49.690;6.472;2024-01-15T11:55:45;11.13;;;6.10;;
15363;SDS011;7781;49.690;6.472;2024-01-15T11:58:16;10.20;;;5.63;;
15363;SDS011;7781;49.690;6.472;2024-01-15T12:00:47;13.30;;;6.73;;
15363;SDS011;7781;49.690;6.472;2024-01-15T12:03:20;7.37;;;4.37;;
15363;SDS011;7781;49.690;6.472;2024-01-15T12:05:49;10.73;;;5.20;;
15363;SDS011;7781;49.690;6.472;2024-01-15T12:08:20;10.20;;;6.70;;
15363;SDS011;7781;49.690;6.472;2024-01-15T12:10:49;9.83;;;5.90;;
15363;SDS011;7781;49.690;6.472;2024-01-15T12:13:20;10.33;;;5.67;;
15363;SDS011;7781;49.690;6.472;2024-01-15T12:15:48;9.13;;;5.33;;
15363;SDS011;7781;49.690;6.472;2024-01-15T12:18:18;8.37;;;4.43;;
15363;SDS011;7781;49.690;6.472;2024-01-15T12:20:48;12.30;;;4.90;;
15363;SDS011;7781;49.690;6.472;2024-01-15T12:23:17;6.87;;;4.37;;
15363;SDS011;7781;49.690;6.472;2024-01-15T12:25:45;6.53;;;3.70;;
15363;SDS011;7781;49.690;6.472;2024-01-15T12:28:14;6.83;;;4.33;;
15363;SDS011;7781;49.690;6.472;2024-01-15T12:30:46;6.77;;;3.63;;
15363;SDS011;7781;49.690;6.472;2024-01-15T12:33:17;7.47;;;4.00;;
15363;SDS011;7781;49.690;6.472;2024-01-15T12:35:47;10.13;;;4.03;;
15363;SDS011;7781;49.690;6.472;2024-01-15T12:38:18;8.63;;;4.40;;
15363;SDS011;7781;49.690;6.472;2024-01-15T12:40:48;5.17;;;3.13;;
15363;SDS011;7781;49.690;6.472;2024-01-15T12:43:17;5.00;;;3.50;;
15363;SDS011;7781;49.690;6.472;2024-01-15T12:45:48;3.97;;;2.93;;
15363;SDS011;7781;49.690;6.472;2024-01-15T12:48:18;8.43;;;3.23;;
15363;SDS011;7781;49.690;6.472;2024-01-15T12:50:47;4.40;;;3.20;;
15363;SDS011;7781;49.690;6.472;2024-01-15T12:53:16;8.73;;;4.23;;
15363;SDS011;7781;49.690;6.472;2024-01-15T12:55:44;8.60;;;3.30;;
15363;SDS011;7781;49.690;6.472;2024-01-15T12:58:13;5.53;;;2.70;;
15363;SDS011;7781;49.690;6.472;2024-01-15T13:00:45;9.97;;;2.57;;
15363;SDS011;7781;49.690;6.472;2024-01-15T13:03:16;4.93;;;2.47;;
15363;SDS011;7781;49.690;6.472;2024-01-15T13:05:45;4.47;;;2.33;;
15363;SDS011;7781;49.690;6.472;2024-01-15T13:08:13;3.83;;;2.03;;
15363;SDS011;7781;49.690;6.472;2024-01-15T13:10:42;3.33;;;2.20;;
15363;SDS011;7781;49.690;6.472;2024-01-15T13:13:11;5.70;;;2.30;;
15363;SDS011;7781;49.690;6.472;2024-01-15T13:15:39;6.73;;;2.77;;
15363;SDS011;7781;49.690;6.472;2024-01-15T13:18:09;4.07;;;1.87;;
15363;SDS011;7781;49.690;6.472;2024-01-15T13:20:41;5.90;;;2.73;;
15363;SDS011;7781;49.690;6.472;2024-01-15T13:23:09;9.63;;;3.40;;
15363;SDS011;7781;49.690;6.472;2024-01-15T13:25:38;5.70;;;1.77;;
15363;SDS011;7781;49.690;6.472;2024-01-15T13:28:07;3.03;;;2.10;;
15363;SDS011;7781;49.690;6.472;2024-01-15T13:30:35;9.83;;;2.13;;
15363;SDS011;7781;49.690;6.472;2024-01-15T13:33:04;2.43;;;2.10;;
15363;SDS011;7781;49.690;6.472;2024-01-15T13:35:33;5.03;;;2.03;;
15363;SDS011;7781;49.690;6.472;2024-01-15T13:38:04;4.43;;;1.90;;
15363;SDS011;7781;49.690;6.472;2024-01-15T13:40:32;2.27;;;1.20;;
15363;SDS011;7781;49.690;6.472;2024-01-15T13:43:01;2.53;;;1.50;;
15363;SDS011;7781;49.690;6.472;2024-01-15T13:45:34;2.97;;;1.60;;
15363;SDS011;7781;49.690;6.472;2024-01-15T13:48:04;2.70;;;1.40;;
15363;SDS011;7781;49.690;6.472;2024-01-15T13:50:34;2.73;;;1.10;;
15363;SDS011;7781;49.690;6.472;2024-01-15T13:53:06;1.80;;;1.17;;
15363;SDS011;7781;49.690;6.472;2024-01-15T13:55:38;1.20;;;1.10;;
15363;SDS011;7781;49.690;6.472;2024-01-15T13:58:07;2.10;;;1.00;;
15363;SDS011;7781;49.690;6.472;2024-01-15T14:00:35;1.30;;;1.20;;
15363;SDS011;7781;49.690;6.472;2024-01-15T14:03:04;3.13;;;1.57;;
15363;SDS011;7781;49.690;6.472;2024-01-15T14:05:33;1.77;;;1.00;;
15363;SDS011;7781;49.690;6.472;2024-01-15T14:08:01;3.50;;;1.00;;
15363;SDS011;7781;49.690;6.472;2024-01-15T14:10:32;3.73;;;1.33;;
15363;SDS011;7781;49.690;6.472;2024-01-15T14:13:00;5.30;;;3.13;;
15363;SDS011;7781;49.690;6.472;2024-01-15T14:15:29;8.37;;;1.23;;
15363;SDS011;7781;49.690;6.472;2024-01-15T14:17:57;1.63;;;1.23;;
15363;SDS011;7781;49.690;6.472;2024-01-15T14:20:28;3.40;;;1.23;;
15363;SDS011;7781;49.690;6.472;2024-01-15T14:22:57;1.53;;;1.20;;
15363;SDS011;7781;49.690;6.472;2024-01-15T14:25:26;3.57;;;1.33;;
15363;SDS011;7781;49.690;6.472;2024-01-15T14:27:56;3.00;;;1.23;;
15363;SDS011;7781;49.690;6.472;2024-01-15T14:30:26;4.00;;;1.67;;
15363;SDS011;7781;49.690;6.472;2024-01-15T14:32:54;3.43;;;1.17;;
15363;SDS011;7781;49.690;6.472;2024-01-15T14:35:23;5.90;;;1.83;;
15363;SDS011;7781;49.690;6.472;2024-01-15T14:37:52;3.77;;;1.27;;
15363;SDS011;7781;49.690;6.472;2024-01-15T14:40:20;3.63;;;1.30;;
15363;SDS011;7781;49.690;6.472;2024-01-15T14:42:49;5.20;;;1.20;;
15363;SDS011;7781;49.690;6.472;2024-01-15T14:45:19;4.83;;;1.37;;
15363;SDS011;7781;49.690;6.472;2024-01-15T14:47:48;2.20;;;1.20;;
15363;SDS011;7781;49.690;6.472;2024-01-15T14:50:17;5.67;;;1.47;;
15363;SDS011;7781;49.690;6.472;2024-01-15T14:52:46;9.43;;;2.20;;
15363;SDS011;7781;49.690;6.472;2024-01-15T14:55:15;5.53;;;1.40;;
15363;SDS011;7781;49.690;6.472;2024-01-15T14:57:45;2.60;;;1.63;;
15363;SDS011;7781;49.690;6.472;2024-01-15T15:00:14;2.17;;;1.47;;
15363;SDS011;7781;49.690;6.472;2024-01-15T15:02:45;4.53;;;1.77;;
15363;SDS011;7781;49.690;6.472;2024-01-15T15:05:15;2.20;;;1.70;;
15363;SDS011;7781;49.690;6.472;2024-01-15T15:07:44;10.80;;;1.97;;